sensor_id;sensor_type;location;lat;lon;timestamp;P1;durP1;ratioP1;P2;durP2;ratioP2
23658;SDS011;12006;42.666;23.326;2023-03-21T00:00:52;18.23;;;12.03;;
23658;SDS011;12006;42.666;23.326;2023-03-21T00:03:19;22.30;;;11.97;;
23658;SDS011;12006;42.666;23.326;2023-03-21T00:05:44;20.40;;;14.63;;
23658;SDS011;12006;42.666;23.326;2023-03-21T00:08:13;21.63;;;15.70;;
23658;SDS011;12006;42.666;23.326;2023-03-21T00:10:39;20.53;;;15.03;;
23658;SDS011;12006;42.666;23.326;2023-03-21T00:13:05;18.60;;;13.90;;
23658;SDS011;12006;42.666;23.326;2023-03-21T00:15:31;18.57;;;14.10;;
23658;SDS011;12006;42.666;23.326;2023-03-21T00:17:57;21.47;;;15.00;;
23658;SDS011;12006;42.666;23.326;2023-03-21T00:20:28;20.73;;;15.53;;
23658;SDS011;12006;42.666;23.326;2023-03-21T00:22:58;22.80;;;15.33;;
23658;SDS011;12006;42.666;23.326;2023-03-21T00:25:26;23.77;;;17.33;;
23658;SDS011;12006;42.666;23.326;2023-03-21T00:27:51;20.10;;;16.53;;
23658;SDS011;12006;42.666;23.326;2023-03-21T00:30:17;24.33;;;16.77;;
23658;SDS011;12006;42.666;23.326;2023-03-21T00:32:42;21.90;;;16.10;;
23658;SDS011;12006;42.666;23.326;2023-03-21T00:35:10;19.57;;;15.00;;
23658;SDS011;12006;42.666;23.326;2023-03-21T00:37:35;24.23;;;14.67;;
23658;SDS011;12006;42.666;23.326;2023-03-21T00:40:01;18.10;;;14.50;;
23658;SDS011;12006;42.666;23.326;2023-03-21T00:42:33;17.77;;;14.60;;
23658;SDS011;12006;42.666;23.326;2023-03-21T00:44:58;19.57;;;14.97;;
23658;SDS011;12006;42.666;23.326;2023-03-21T00:47:23;18.53;;;14.20;;
23658;SDS011;12006;42.666;23.326;2023-03-21T00:49:49;18.27;;;14.47;;
23658;SDS011;12006;42.666;23.326;2023-03-21T00:52:14;16.50;;;14.20;;
23658;SDS011;12006;42.666;23.326;2023-03-21T00:54:40;18.87;;;13.73;;
23658;SDS011;12006;42.666;23.326;2023-03-21T00:57:05;16.20;;;13.37;;
23658;SDS011;12006;42.666;23.326;2023-03-21T00:59:31;16.23;;;13.23;;
23658;SDS011;12006;42.666;23.326;2023-03-21T01:01:56;16.77;;;13.70;;
23658;SDS011;12006;42.666;23.326;2023-03-21T01:04:24;16.60;;;14.00;;
23658;SDS011;12006;42.666;23.326;2023-03-21T01:06:51;19.30;;;13.57;;
23658;SDS011;12006;42.666;23.326;2023-03-21T01:09:18;18.13;;;14.63;;
23658;SDS011;12006;42.666;23.326;2023-03-21T01:11:46;22.30;;;15.60;;
23658;SDS011;12006;42.666;23.326;2023-03-21T01:14:12;19.67;;;15.50;;
23658;SDS011;12006;42.666;23.326;2023-03-21T01:16:39;19.27;;;14.93;;
23658;SDS011;12006;42.666;23.326;2023-03-21T01:19:05;25.93;;;15.67;;
23658;SDS011;12006;42.666;23.326;2023-03-21T01:21:31;19.63;;;14.23;;
23658;SDS011;12006;42.666;23.326;2023-03-21T01:23:57;18.80;;;14.03;;
23658;SDS011;12006;42.666;23.326;2023-03-21T01:26:23;15.77;;;13.83;;
23658;SDS011;12006;42.666;23.326;2023-03-21T01:28:48;22.17;;;15.00;;
23658;SDS011;12006;42.666;23.326;2023-03-21T01:31:14;17.13;;;13.80;;
23658;SDS011;12006;42.666;23.326;2023-03-21T01:33:41;18.70;;;14.23;;
23658;SDS011;12006;42.666;23.326;2023-03-21T01:36:07;21.30;;;14.73;;
23658;SDS011;12006;42.666;23.326;2023-03-21T01:38:43;18.00;;;13.43;;
23658;SDS011;12006;42.666;23.326;2023-03-21T01:41:19;17.80;;;13.97;;
23658;SDS011;12006;42.666;23.326;2023-03-21T01:43:50;18.03;;;13.50;;
23658;SDS011;12006;42.666;23.326;2023-03-21T01:51:53;18.27;;;14.07;;
23658;SDS011;12006;42.666;23.326;2023-03-21T01:54:28;19.23;;;13.70;;
23658;SDS011;12006;42.666;23.326;2023-03-21T01:56:56;18.27;;;13.20;;
23658;SDS011;12006;42.666;23.326;2023-03-21T01:59:27;18.37;;;13.83;;
23658;SDS011;12006;42.666;23.326;2023-03-21T02:01:58;18.10;;;14.13;;
23658;SDS011;12006;42.666;23.326;2023-03-21T02:04:31;17.47;;;13.37;;
23658;SDS011;12006;42.666;23.326;2023-03-21T02:07:01;17.77;;;13.30;;
23658;SDS011;12006;42.666;23.326;2023-03-21T02:09:32;18.77;;;13.37;;
23658;SDS011;12006;42.666;23.326;2023-03-21T02:12:00;18.73;;;13.60;;
23658;SDS011;12006;42.666;23.326;2023-03-21T02:14:26;19.00;;;13.60;;
23658;SDS011;12006;42.666;23.326;2023-03-21T02:37:32;21.73;;;13.27;;
23658;SDS011;12006;42.666;23.326;2023-03-21T02:40:18;22.37;;;13.90;;
23658;SDS011;12006;42.666;23.326;2023-03-21T02:45:44;20.50;;;12.73;;
23658;SDS011;12006;42.666;23.326;2023-03-21T02:48:18;19.53;;;13.00;;
23658;SDS011;12006;42.666;23.326;2023-03-21T02:50:51;19.43;;;12.87;;
23658;SDS011;12006;42.666;23.326;2023-03-21T02:53:19;17.07;;;12.47;;
23658;SDS011;12006;42.666;23.326;2023-03-21T02:55:49;17.60;;;12.10;;
23658;SDS011;12006;42.666;23.326;2023-03-21T02:58:18;15.50;;;12.97;;
23658;SDS011;12006;42.666;23.326;2023-03-21T03:00:45;18.43;;;13.07;;
23658;SDS011;12006;42.666;23.326;2023-03-21T03:03:12;18.70;;;13.03;;
23658;SDS011;12006;42.666;23.326;2023-03-21T03:05:45;18.10;;;12.63;;
23658;SDS011;12006;42.666;23.326;2023-03-21T03:18:55;16.23;;;13.13;;
23658;SDS011;12006;42.666;23.326;2023-03-21T03:24:03;16.77;;;12.43;;
23658;SDS011;12006;42.666;23.326;2023-03-21T03:26:40;18.83;;;14.63;;
23658;SDS011;12006;42.666;23.326;2023-03-21T03:29:11;20.13;;;13.77;;
23658;SDS011;12006;42.666;23.326;2023-03-21T03:34:33;23.10;;;13.37;;
23658;SDS011;12006;42.666;23.326;2023-03-21T03:37:05;21.27;;;13.07;;
23658;SDS011;12006;42.666;23.326;2023-03-21T03:39:38;18.23;;;12.50;;
23658;SDS011;12006;42.666;23.326;2023-03-21T03:42:18;19.83;;;12.27;;
23658;SDS011;12006;42.666;23.326;2023-03-21T03:44:48;16.97;;;11.27;;
23658;SDS011;12006;42.666;23.326;2023-03-21T03:52:46;19.33;;;12.70;;
23658;SDS011;12006;42.666;23.326;2023-03-21T03:55:19;18.27;;;12.07;;
23658;SDS011;12006;42.666;23.326;2023-03-21T03:57:46;16.70;;;11.73;;
23658;SDS011;12006;42.666;23.326;2023-03-21T04:00:13;19.70;;;11.03;;
23658;SDS011;12006;42.666;23.326;2023-03-21T04:02:41;18.97;;;13.40;;
23658;SDS011;12006;42.666;23.326;2023-03-21T04:05:07;18.87;;;13.23;;
23658;SDS011;12006;42.666;23.326;2023-03-21T04:07:33;18.80;;;12.27;;
23658;SDS011;12006;42.666;23.326;2023-03-21T04:09:58;17.23;;;11.53;;
23658;SDS011;12006;42.666;23.326;2023-03-21T04:12:24;19.23;;;11.97;;
23658;SDS011;12006;42.666;23.326;2023-03-21T04:14:49;20.90;;;14.30;;
23658;SDS011;12006;42.666;23.326;2023-03-21T04:17:15;17.90;;;12.80;;
23658;SDS011;12006;42.666;23.326;2023-03-21T04:19:42;15.50;;;13.00;;
23658;SDS011;12006;42.666;23.326;2023-03-21T04:22:09;16.50;;;11.83;;
23658;SDS011;12006;42.666;23.326;2023-03-21T04:24:34;20.50;;;12.33;;
23658;SDS011;12006;42.666;23.326;2023-03-21T04:27:01;23.00;;;12.90;;
23658;SDS011;12006;42.666;23.326;2023-03-21T04:29:27;18.60;;;11.80;;
23658;SDS011;12006;42.666;23.326;2023-03-21T04:31:53;15.93;;;11.17;;
23658;SDS011;12006;42.666;23.326;2023-03-21T04:34:19;18.23;;;11.70;;
23658;SDS011;12006;42.666;23.326;2023-03-21T04:36:48;13.47;;;10.70;;
23658;SDS011;12006;42.666;23.326;2023-03-21T04:39:15;20.63;;;12.53;;
23658;SDS011;12006;42.666;23.326;2023-03-21T04:41:41;17.90;;;12.83;;
23658;SDS011;12006;42.666;23.326;2023-03-21T04:44:09;18.70;;;13.30;;
23658;SDS011;12006;42.666;23.326;2023-03-21T04:46:36;19.73;;;13.90;;
23658;SDS011;12006;42.666;23.326;2023-03-21T04:49:02;23.33;;;14.10;;
23658;SDS011;12006;42.666;23.326;2023-03-21T04:51:29;22.07;;;13.70;;
23658;SDS011;12006;42.666;23.326;2023-03-21T04:53:55;22.00;;;13.00;;
23658;SDS011;12006;42.666;23.326;2023-03-21T04:56:24;22.53;;;13.63;;
23658;SDS011;12006;42.666;23.326;2023-03-21T04:58:56;22.83;;;12.57;;
23658;SDS011;12006;42.666;23.326;2023-03-21T05:01:22;22.67;;;11.93;;
23658;SDS011;12006;42.666;23.326;2023-03-21T05:03:47;20.73;;;13.60;;
23658;SDS011;12006;42.666;23.326;2023-03-21T05:06:13;25.30;;;13.83;;
23658;SDS011;12006;42.666;23.326;2023-03-21T05:08:38;24.13;;;13.37;;
23658;SDS011;12006;42.666;23.326;2023-03-21T05:11:05;24.23;;;12.97;;
23658;SDS011;12006;42.666;23.326;2023-03-21T05:13:31;24.97;;;11.90;;
23658;SDS011;12006;42.666;23.326;2023-03-21T05:15:56;32.20;;;13.03;;
23658;SDS011;12006;42.666;23.326;2023-03-21T05:18:21;24.13;;;13.63;;
23658;SDS011;12006;42.666;23.326;2023-03-21T05:20:51;19.93;;;12.93;;
23658;SDS011;12006;42.666;23.326;2023-03-21T05:23:22;26.77;;;13.30;;
23658;SDS011;12006;42.666;23.326;2023-03-21T05:25:48;20.27;;;13.37;;
23658;SDS011;12006;42.666;23.326;2023-03-21T05:28:14;21.63;;;13.27;;
23658;SDS011;12006;42.666;23.326;2023-03-21T05:30:42;23.53;;;12.83;;
23658;SDS011;12006;42.666;23.326;2023-03-21T05:33:09;22.40;;;13.43;;
23658;SDS011;12006;42.666;23.326;2023-03-21T05:35:35;23.43;;;11.80;;
23658;SDS011;12006;42.666;23.326;2023-03-21T05:38:01;23.17;;;13.37;;
23658;SDS011;12006;42.666;23.326;2023-03-21T05:40:26;26.53;;;13.20;;
23658;SDS011;12006;42.666;23.326;2023-03-21T05:42:51;27.33;;;14.93;;
23658;SDS011;12006;42.666;23.326;2023-03-21T05:45:17;27.53;;;13.60;;
23658;SDS011;12006;42.666;23.326;2023-03-21T05:47:42;28.03;;;13.77;;
23658;SDS011;12006;42.666;23.326;2023-03-21T05:50:08;20.87;;;12.63;;
23658;SDS011;12006;42.666;23.326;2023-03-21T05:52:35;26.70;;;12.83;;
23658;SDS011;12006;42.666;23.326;2023-03-21T05:55:01;28.10;;;13.00;;
23658;SDS011;12006;42.666;23.326;2023-03-21T05:57:26;24.20;;;13.67;;
23658;SDS011;12006;42.666;23.326;2023-03-21T05:59:53;24.17;;;13.47;;
23658;SDS011;12006;42.666;23.326;2023-03-21T06:02:18;24.87;;;14.00;;
23658;SDS011;12006;42.666;23.326;2023-03-21T06:04:44;22.80;;;13.47;;
23658;SDS011;12006;42.666;23.326;2023-03-21T06:07:09;27.87;;;13.73;;
23658;SDS011;12006;42.666;23.326;2023-03-21T06:09:35;28.53;;;14.80;;
23658;SDS011;12006;42.666;23.326;2023-03-21T06:12:00;27.70;;;14.97;;
23658;SDS011;12006;42.666;23.326;2023-03-21T06:14:26;30.87;;;14.33;;
23658;SDS011;12006;42.666;23.326;2023-03-21T06:16:51;35.57;;;14.90;;
23658;SDS011;12006;42.666;23.326;2023-03-21T06:19:18;24.63;;;13.80;;
23658;SDS011;12006;42.666;23.326;2023-03-21T06:21:44;25.00;;;13.07;;
23658;SDS011;12006;42.666;23.326;2023-03-21T06:24:10;22.97;;;13.60;;
23658;SDS011;12006;42.666;23.326;2023-03-21T06:26:35;21.27;;;13.70;;
23658;SDS011;12006;42.666;23.326;2023-03-21T06:29:01;22.23;;;13.77;;
23658;SDS011;12006;42.666;23.326;2023-03-21T06:31:26;23.63;;;14.90;;
23658;SDS011;12006;42.666;23.326;2023-03-21T06:33:52;26.13;;;14.87;;
23658;SDS011;12006;42.666;23.326;2023-03-21T06:36:17;22.37;;;14.93;;
23658;SDS011;12006;42.666;23.326;2023-03-21T06:38:43;25.63;;;13.27;;
23658;SDS011;12006;42.666;23.326;2023-03-21T06:41:11;20.43;;;10.73;;
23658;SDS011;12006;42.666;23.326;2023-03-21T06:43:37;11.97;;;8.90;;
23658;SDS011;12006;42.666;23.326;2023-03-21T06:46:03;11.03;;;9.00;;
23658;SDS011;12006;42.666;23.326;2023-03-21T06:48:29;11.20;;;9.10;;
23658;SDS011;12006;42.666;23.326;2023-03-21T06:50:55;13.43;;;8.70;;
23658;SDS011;12006;42.666;23.326;2023-03-21T06:53:21;16.27;;;9.00;;
23658;SDS011;12006;42.666;23.326;2023-03-21T06:55:52;10.90;;;9.40;;
23658;SDS011;12006;42.666;23.326;2023-03-21T06:58:18;13.07;;;9.23;;
23658;SDS011;12006;42.666;23.326;2023-03-21T07:00:44;11.20;;;9.00;;
23658;SDS011;12006;42.666;23.326;2023-03-21T07:03:10;12.00;;;9.47;;
23658;SDS011;12006;42.666;23.326;2023-03-21T07:05:36;12.87;;;9.03;;
23658;SDS011;12006;42.666;23.326;2023-03-21T07:08:03;12.70;;;10.17;;
23658;SDS011;12006;42.666;23.326;2023-03-21T07:10:29;13.70;;;8.63;;
23658;SDS011;12006;42.666;23.326;2023-03-21T07:12:55;14.10;;;8.97;;
23658;SDS011;12006;42.666;23.326;2023-03-21T07:15:23;11.17;;;7.93;;
23658;SDS011;12006;42.666;23.326;2023-03-21T07:17:48;10.77;;;7.53;;
23658;SDS011;12006;42.666;23.326;2023-03-21T07:20:14;9.33;;;7.90;;
23658;SDS011;12006;42.666;23.326;2023-03-21T07:22:39;10.13;;;7.87;;
23658;SDS011;12006;42.666;23.326;2023-03-21T07:25:05;16.83;;;9.00;;
23658;SDS011;12006;42.666;23.326;2023-03-21T07:27:31;18.53;;;11.10;;
23658;SDS011;12006;42.666;23.326;2023-03-21T07:29:57;17.70;;;11.52;;
23658;SDS011;12006;42.666;23.326;2023-03-21T07:32:23;19.17;;;14.10;;
23658;SDS011;12006;42.666;23.326;2023-03-21T07:34:48;17.70;;;13.50;;
23658;SDS011;12006;42.666;23.326;2023-03-21T07:37:14;23.15;;;16.05;;
23658;SDS011;12006;42.666;23.326;2023-03-21T07:39:40;17.60;;;13.07;;
23658;SDS011;12006;42.666;23.326;2023-03-21T07:42:07;19.25;;;14.25;;
23658;SDS011;12006;42.666;23.326;2023-03-21T07:44:32;19.98;;;12.98;;
23658;SDS011;12006;42.666;23.326;2023-03-21T07:46:58;21.60;;;13.07;;
23658;SDS011;12006;42.666;23.326;2023-03-21T07:49:23;18.90;;;12.60;;
23658;SDS011;12006;42.666;23.326;2023-03-21T07:51:50;20.02;;;15.07;;
23658;SDS011;12006;42.666;23.326;2023-03-21T07:54:16;19.38;;;15.27;;
23658;SDS011;12006;42.666;23.326;2023-03-21T07:56:45;18.40;;;14.48;;
23658;SDS011;12006;42.666;23.326;2023-03-21T07:59:10;17.05;;;14.38;;
23658;SDS011;12006;42.666;23.326;2023-03-21T08:01:35;18.40;;;15.65;;
23658;SDS011;12006;42.666;23.326;2023-03-21T08:04:01;17.88;;;14.52;;
23658;SDS011;12006;42.666;23.326;2023-03-21T08:06:27;16.65;;;13.10;;
23658;SDS011;12006;42.666;23.326;2023-03-21T08:08:53;19.38;;;13.15;;
23658;SDS011;12006;42.666;23.326;2023-03-21T08:11:18;16.00;;;11.33;;
23658;SDS011;12006;42.666;23.326;2023-03-21T08:13:46;14.57;;;12.63;;
23658;SDS011;12006;42.666;23.326;2023-03-21T08:16:11;17.13;;;12.20;;
23658;SDS011;12006;42.666;23.326;2023-03-21T08:18:37;15.97;;;11.43;;
23658;SDS011;12006;42.666;23.326;2023-03-21T08:21:02;17.43;;;15.20;;
23658;SDS011;12006;42.666;23.326;2023-03-21T08:23:27;16.87;;;14.20;;
23658;SDS011;12006;42.666;23.326;2023-03-21T08:25:53;17.60;;;12.05;;
23658;SDS011;12006;42.666;23.326;2023-03-21T08:28:20;16.02;;;11.43;;
23658;SDS011;12006;42.666;23.326;2023-03-21T08:30:46;17.20;;;11.18;;
23658;SDS011;12006;42.666;23.326;2023-03-21T08:33:12;14.50;;;10.57;;
23658;SDS011;12006;42.666;23.326;2023-03-21T08:35:38;14.57;;;9.87;;
23658;SDS011;12006;42.666;23.326;2023-03-21T08:38:04;12.17;;;9.73;;
23658;SDS011;12006;42.666;23.326;2023-03-21T08:40:30;12.75;;;9.50;;
23658;SDS011;12006;42.666;23.326;2023-03-21T08:42:56;13.68;;;11.05;;
23658;SDS011;12006;42.666;23.326;2023-03-21T08:45:22;13.80;;;10.00;;
23658;SDS011;12006;42.666;23.326;2023-03-21T08:47:47;14.05;;;10.20;;
23658;SDS011;12006;42.666;23.326;2023-03-21T08:50:14;15.95;;;10.80;;
23658;SDS011;12006;42.666;23.326;2023-03-21T08:52:42;13.77;;;10.38;;
23658;SDS011;12006;42.666;23.326;2023-03-21T08:55:08;17.08;;;10.30;;
23658;SDS011;12006;42.666;23.326;2023-03-21T08:57:34;11.73;;;9.32;;
23658;SDS011;12006;42.666;23.326;2023-03-21T09:00:00;10.75;;;9.63;;
23658;SDS011;12006;42.666;23.326;2023-03-21T09:02:31;10.32;;;9.05;;
23658;SDS011;12006;42.666;23.326;2023-03-21T09:04:56;13.43;;;9.80;;
23658;SDS011;12006;42.666;23.326;2023-03-21T09:07:23;12.38;;;9.57;;
23658;SDS011;12006;42.666;23.326;2023-03-21T09:09:50;16.40;;;10.63;;
23658;SDS011;12006;42.666;23.326;2023-03-21T09:12:17;14.20;;;10.98;;
23658;SDS011;12006;42.666;23.326;2023-03-21T09:14:42;15.30;;;10.55;;
23658;SDS011;12006;42.666;23.326;2023-03-21T09:17:07;12.27;;;10.98;;
23658;SDS011;12006;42.666;23.326;2023-03-21T09:19:33;12.60;;;10.40;;
23658;SDS011;12006;42.666;23.326;2023-03-21T09:21:59;11.60;;;9.32;;
23658;SDS011;12006;42.666;23.326;2023-03-21T09:24:25;11.45;;;9.07;;
23658;SDS011;12006;42.666;23.326;2023-03-21T09:26:50;10.65;;;9.55;;
23658;SDS011;12006;42.666;23.326;2023-03-21T09:29:17;11.80;;;9.57;;
23658;SDS011;12006;42.666;23.326;2023-03-21T09:31:47;12.45;;;9.63;;
23658;SDS011;12006;42.666;23.326;2023-03-21T09:34:12;10.30;;;9.02;;
23658;SDS011;12006;42.666;23.326;2023-03-21T09:36:41;10.85;;;9.05;;
23658;SDS011;12006;42.666;23.326;2023-03-21T09:39:08;11.02;;;9.65;;
23658;SDS011;12006;42.666;23.326;2023-03-21T09:44:30;12.88;;;10.25;;
23658;SDS011;12006;42.666;23.326;2023-03-21T09:47:04;13.85;;;10.93;;
23658;SDS011;12006;42.666;23.326;2023-03-21T09:49:58;13.05;;;10.77;;
23658;SDS011;12006;42.666;23.326;2023-03-21T09:52:42;27.80;;;19.08;;
23658;SDS011;12006;42.666;23.326;2023-03-21T09:55:22;12.68;;;11.35;;
23658;SDS011;12006;42.666;23.326;2023-03-21T09:58:05;13.27;;;11.07;;
23658;SDS011;12006;42.666;23.326;2023-03-21T10:00:50;13.02;;;9.63;;
23658;SDS011;12006;42.666;23.326;2023-03-21T10:03:23;13.85;;;9.38;;
23658;SDS011;12006;42.666;23.326;2023-03-21T10:05:54;17.70;;;10.60;;
23658;SDS011;12006;42.666;23.326;2023-03-21T10:08:30;13.30;;;11.32;;
23658;SDS011;12006;42.666;23.326;2023-03-21T10:14:04;15.48;;;11.05;;
23658;SDS011;12006;42.666;23.326;2023-03-21T10:16:33;13.65;;;10.77;;
23658;SDS011;12006;42.666;23.326;2023-03-21T10:19:02;13.80;;;11.90;;
23658;SDS011;12006;42.666;23.326;2023-03-21T10:21:32;15.50;;;11.45;;
23658;SDS011;12006;42.666;23.326;2023-03-21T10:23:57;14.27;;;12.30;;
23658;SDS011;12006;42.666;23.326;2023-03-21T10:26:24;13.38;;;11.40;;
23658;SDS011;12006;42.666;23.326;2023-03-21T10:28:57;16.52;;;12.75;;
23658;SDS011;12006;42.666;23.326;2023-03-21T10:31:25;13.80;;;12.38;;
23658;SDS011;12006;42.666;23.326;2023-03-21T10:33:55;17.02;;;13.15;;
23658;SDS011;12006;42.666;23.326;2023-03-21T10:36:26;16.25;;;11.52;;
23658;SDS011;12006;42.666;23.326;2023-03-21T10:38:56;15.38;;;12.07;;
23658;SDS011;12006;42.666;23.326;2023-03-21T10:41:26;15.77;;;11.82;;
23658;SDS011;12006;42.666;23.326;2023-03-21T10:46:42;13.23;;;11.50;;
23658;SDS011;12006;42.666;23.326;2023-03-21T10:49:17;14.45;;;10.98;;
23658;SDS011;12006;42.666;23.326;2023-03-21T10:51:45;13.90;;;11.10;;
23658;SDS011;12006;42.666;23.326;2023-03-21T10:54:13;7.93;;;7.13;;
23658;SDS011;12006;42.666;23.326;2023-03-21T10:56:43;12.00;;;10.55;;
23658;SDS011;12006;42.666;23.326;2023-03-21T10:59:19;12.05;;;8.35;;
23658;SDS011;12006;42.666;23.326;2023-03-21T11:01:48;11.55;;;8.07;;
23658;SDS011;12006;42.666;23.326;2023-03-21T11:04:20;12.32;;;9.25;;
23658;SDS011;12006;42.666;23.326;2023-03-21T11:06:53;10.23;;;8.02;;
23658;SDS011;12006;42.666;23.326;2023-03-21T11:09:26;10.30;;;8.65;;
23658;SDS011;12006;42.666;23.326;2023-03-21T11:12:15;8.98;;;7.43;;
23658;SDS011;12006;42.666;23.326;2023-03-21T11:14:43;7.82;;;6.50;;
23658;SDS011;12006;42.666;23.326;2023-03-21T11:20:07;8.48;;;7.63;;
23658;SDS011;12006;42.666;23.326;2023-03-21T11:22:38;10.85;;;7.80;;
23658;SDS011;12006;42.666;23.326;2023-03-21T11:25:08;8.88;;;7.72;;
23658;SDS011;12006;42.666;23.326;2023-03-21T11:27:51;12.07;;;7.70;;
23658;SDS011;12006;42.666;23.326;2023-03-21T11:30:23;7.63;;;6.75;;
23658;SDS011;12006;42.666;23.326;2023-03-21T11:32:57;9.40;;;7.57;;
23658;SDS011;12006;42.666;23.326;2023-03-21T11:35:27;8.90;;;8.00;;
23658;SDS011;12006;42.666;23.326;2023-03-21T11:37:58;7.38;;;6.60;;
23658;SDS011;12006;42.666;23.326;2023-03-21T11:40:25;9.43;;;6.93;;
23658;SDS011;12006;42.666;23.326;2023-03-21T11:42:57;9.20;;;7.30;;
23658;SDS011;12006;42.666;23.326;2023-03-21T11:45:28;10.38;;;7.28;;
23658;SDS011;12006;42.666;23.326;2023-03-21T11:47:56;8.07;;;6.93;;
23658;SDS011;12006;42.666;23.326;2023-03-21T11:53:02;11.50;;;8.70;;
23658;SDS011;12006;42.666;23.326;2023-03-21T12:07:04;7.70;;;5.97;;
23658;SDS011;12006;42.666;23.326;2023-03-21T12:09:58;7.72;;;5.03;;
23658;SDS011;12006;42.666;23.326;2023-03-21T12:20:32;5.60;;;4.85;;
23658;SDS011;12006;42.666;23.326;2023-03-21T12:31:01;4.85;;;4.40;;
23658;SDS011;12006;42.666;23.326;2023-03-21T12:33:44;6.60;;;4.30;;
23658;SDS011;12006;42.666;23.326;2023-03-21T12:36:30;4.53;;;3.92;;
23658;SDS011;12006;42.666;23.326;2023-03-21T12:41:56;5.18;;;4.68;;
23658;SDS011;12006;42.666;23.326;2023-03-21T12:44:53;7.30;;;5.07;;
23658;SDS011;12006;42.666;23.326;2023-03-21T12:47:25;5.82;;;5.22;;
23658;SDS011;12006;42.666;23.326;2023-03-21T12:50:04;7.07;;;4.75;;
23658;SDS011;12006;42.666;23.326;2023-03-21T12:52:40;11.20;;;6.15;;
23658;SDS011;12006;42.666;23.326;2023-03-21T12:57:53;8.20;;;5.18;;
23658;SDS011;12006;42.666;23.326;2023-03-21T13:06:41;10.93;;;9.93;;
23658;SDS011;12006;42.666;23.326;2023-03-21T13:09:13;6.25;;;5.05;;
23658;SDS011;12006;42.666;23.326;2023-03-21T13:11:44;6.57;;;4.78;;
23658;SDS011;12006;42.666;23.326;2023-03-21T13:14:32;6.20;;;5.43;;
23658;SDS011;12006;42.666;23.326;2023-03-21T13:17:18;6.55;;;5.55;;
23658;SDS011;12006;42.666;23.326;2023-03-21T13:20:03;5.88;;;5.18;;
23658;SDS011;12006;42.666;23.326;2023-03-21T13:22:40;5.57;;;4.97;;
23658;SDS011;12006;42.666;23.326;2023-03-21T13:25:21;6.22;;;5.65;;
23658;SDS011;12006;42.666;23.326;2023-03-21T13:27:53;6.22;;;5.63;;
23658;SDS011;12006;42.666;23.326;2023-03-21T13:30:27;6.28;;;5.07;;
23658;SDS011;12006;42.666;23.326;2023-03-21T13:33:16;6.90;;;5.60;;
23658;SDS011;12006;42.666;23.326;2023-03-21T13:35:44;6.63;;;5.03;;
23658;SDS011;12006;42.666;23.326;2023-03-21T13:38:19;5.53;;;4.88;;
23658;SDS011;12006;42.666;23.326;2023-03-21T13:40:49;6.85;;;6.22;;
23658;SDS011;12006;42.666;23.326;2023-03-21T13:46:15;6.47;;;5.75;;
23658;SDS011;12006;42.666;23.326;2023-03-21T13:49:00;6.85;;;6.25;;
23658;SDS011;12006;42.666;23.326;2023-03-21T13:51:45;7.00;;;6.07;;
23658;SDS011;12006;42.666;23.326;2023-03-21T13:54:16;6.80;;;6.07;;
23658;SDS011;12006;42.666;23.326;2023-03-21T14:02:02;7.32;;;5.97;;
23658;SDS011;12006;42.666;23.326;2023-03-21T14:04:28;5.97;;;5.45;;
23658;SDS011;12006;42.666;23.326;2023-03-21T14:06:57;6.70;;;5.03;;
23658;SDS011;12006;42.666;23.326;2023-03-21T14:09:39;5.25;;;4.75;;
23658;SDS011;12006;42.666;23.326;2023-03-21T14:12:11;6.65;;;4.45;;
23658;SDS011;12006;42.666;23.326;2023-03-21T14:14:40;7.18;;;4.78;;
23658;SDS011;12006;42.666;23.326;2023-03-21T14:17:14;7.15;;;5.07;;
23658;SDS011;12006;42.666;23.326;2023-03-21T14:19:50;6.03;;;4.78;;
23658;SDS011;12006;42.666;23.326;2023-03-21T14:22:37;4.55;;;4.10;;
23658;SDS011;12006;42.666;23.326;2023-03-21T14:25:05;5.68;;;5.10;;
23658;SDS011;12006;42.666;23.326;2023-03-21T14:27:35;7.93;;;5.85;;
23658;SDS011;12006;42.666;23.326;2023-03-21T14:30:02;6.93;;;4.57;;
23658;SDS011;12006;42.666;23.326;2023-03-21T14:32:29;5.70;;;4.68;;
23658;SDS011;12006;42.666;23.326;2023-03-21T14:34:55;5.68;;;5.07;;
23658;SDS011;12006;42.666;23.326;2023-03-21T14:37:37;9.38;;;5.60;;
23658;SDS011;12006;42.666;23.326;2023-03-21T14:40:27;5.85;;;4.80;;
23658;SDS011;12006;42.666;23.326;2023-03-21T14:42:52;6.88;;;5.05;;
23658;SDS011;12006;42.666;23.326;2023-03-21T14:45:26;6.65;;;4.57;;
23658;SDS011;12006;42.666;23.326;2023-03-21T14:47:54;5.32;;;4.82;;
23658;SDS011;12006;42.666;23.326;2023-03-21T14:50:27;6.22;;;4.95;;
23658;SDS011;12006;42.666;23.326;2023-03-21T14:53:01;8.23;;;7.53;;
23658;SDS011;12006;42.666;23.326;2023-03-21T14:55:27;7.00;;;6.22;;
23658;SDS011;12006;42.666;23.326;2023-03-21T14:57:53;6.65;;;5.25;;
23658;SDS011;12006;42.666;23.326;2023-03-21T15:00:27;5.93;;;5.30;;
23658;SDS011;12006;42.666;23.326;2023-03-21T15:02:55;8.68;;;6.65;;
23658;SDS011;12006;42.666;23.326;2023-03-21T15:05:33;7.55;;;5.40;;
23658;SDS011;12006;42.666;23.326;2023-03-21T15:08:07;6.35;;;5.53;;
23658;SDS011;12006;42.666;23.326;2023-03-21T15:10:39;7.80;;;7.00;;
23658;SDS011;12006;42.666;23.326;2023-03-21T15:13:15;7.65;;;6.30;;
23658;SDS011;12006;42.666;23.326;2023-03-21T15:15:43;6.85;;;6.05;;
23658;SDS011;12006;42.666;23.326;2023-03-21T15:18:11;6.28;;;5.60;;
23658;SDS011;12006;42.666;23.326;2023-03-21T15:20:41;6.50;;;5.88;;
23658;SDS011;12006;42.666;23.326;2023-03-21T15:23:27;6.88;;;6.10;;
23658;SDS011;12006;42.666;23.326;2023-03-21T15:25:57;8.50;;;5.20;;
23658;SDS011;12006;42.666;23.326;2023-03-21T15:28:26;6.87;;;6.20;;
23658;SDS011;12006;42.666;23.326;2023-03-21T15:30:52;7.60;;;6.90;;
23658;SDS011;12006;42.666;23.326;2023-03-21T15:33:17;7.50;;;6.80;;
23658;SDS011;12006;42.666;23.326;2023-03-21T15:35:45;6.87;;;6.20;;
23658;SDS011;12006;42.666;23.326;2023-03-21T15:38:28;8.00;;;7.07;;
23658;SDS011;12006;42.666;23.326;2023-03-21T15:43:53;8.10;;;7.30;;
23658;SDS011;12006;42.666;23.326;2023-03-21T15:46:50;8.80;;;7.23;;
23658;SDS011;12006;42.666;23.326;2023-03-21T15:49:32;10.00;;;8.23;;
23658;SDS011;12006;42.666;23.326;2023-03-21T15:52:14;7.17;;;6.57;;
23658;SDS011;12006;42.666;23.326;2023-03-21T15:54:47;7.67;;;6.53;;
23658;SDS011;12006;42.666;23.326;2023-03-21T15:57:23;6.97;;;6.37;;
23658;SDS011;12006;42.666;23.326;2023-03-21T15:59:58;11.10;;;7.87;;
23658;SDS011;12006;42.666;23.326;2023-03-21T16:02:45;9.50;;;7.63;;
23658;SDS011;12006;42.666;23.326;2023-03-21T16:07:49;9.50;;;8.50;;
23658;SDS011;12006;42.666;23.326;2023-03-21T16:10:26;10.20;;;9.00;;
23658;SDS011;12006;42.666;23.326;2023-03-21T16:12:53;11.97;;;9.77;;
23658;SDS011;12006;42.666;23.326;2023-03-21T16:15:19;10.87;;;9.77;;
23658;SDS011;12006;42.666;23.326;2023-03-21T16:17:48;11.57;;;10.40;;
23658;SDS011;12006;42.666;23.326;2023-03-21T16:20:18;11.57;;;10.23;;
23658;SDS011;12006;42.666;23.326;2023-03-21T16:22:46;13.43;;;12.03;;
23658;SDS011;12006;42.666;23.326;2023-03-21T16:25:12;14.70;;;13.10;;
23658;SDS011;12006;42.666;23.326;2023-03-21T16:27:38;15.27;;;12.87;;